Página principal
METAR-TAF:

METAR-TAF

Aeroportos :

Pyongyang, Coreia do Norte

latitude: 39-02N, longitude: 125-47E, altura: 36 m

METAR: em falta

Hora: 07:21 (22:51 UTC)

Previsão

O boletim foi feito há 19 horas e 11 minutos, às 03:40 UTC
Previsão válida de 21 às 06 UTC a 22 às 06 UTC
Vento 10 kt de su-sudoeste
Visibilidade: 8000 m
Nuvens dispersasa uma altura de 2700 ft
Tornando-se
de 21 às 09 UTC a 21 às 11 UTC
Encobertoa uma altura de 1700 ft
Temporariamente
de 21 às 11 UTC a 21 às 24 UTC
Visibilidade: 5000 m
chuva fraca

TAF: ZKPY 210340Z 2106/2206 20005MPS 8000 SCT027 BECMG 2109/2111 OVC017 TEMPO 2111/2124 5000 -RA TX06/2107Z TN02/2119Z

Observações e previsões do tempo de mais de 4000 aeroportos (mensagens METAR e TAF).

As estações disponíveis são os pontos amarelos e vermelhos sobre o mapa.

Mova o rato sobre o mapa para ver o nome da estação.

Depois clique no ponto para visualizar as observações e previsões meteorológicas.

Para alterar o mapa : clique nos botões verdes com uma cruz preta para aumentar o zoom; no botão verde com uma pitada de zoom; ou nas setas verdes para mapas adjacentes.


METAR-TAF: